createdAt,value
2018-11-10T00:00:39.745Z,57.67
2018-11-10T00:01:39.728Z,57.48
2018-11-10T00:02:39.742Z,57.76
2018-11-10T00:03:39.696Z,59
2018-11-10T00:04:39.672Z,59.28
2018-11-10T00:05:39.654Z,59.76
2018-11-10T00:06:39.372Z,60.24
2018-11-10T00:07:39.367Z,60.24
2018-11-10T00:08:39.338Z,60.62
2018-11-10T00:09:39.322Z,61.19
2018-11-10T00:10:39.316Z,61.57
2018-11-10T00:11:39.290Z,62.34
2018-11-10T00:12:39.539Z,62.05
2018-11-10T00:13:39.255Z,62.62
2018-11-10T00:14:39.509Z,62.34
2018-11-10T00:15:39.488Z,63
2018-11-10T00:16:39.266Z,63.1
2018-11-10T00:17:39.460Z,63
2018-11-10T00:18:39.434Z,63
2018-11-10T00:19:39.420Z,63.1
2018-11-10T00:20:39.408Z,62.62
2018-11-10T00:21:39.121Z,62.62
2018-11-10T00:22:39.368Z,62.72
2018-11-10T00:23:39.352Z,62.72
2018-11-10T00:24:39.080Z,62.72
2018-11-10T00:25:39.327Z,62.52
2018-11-10T00:26:39.251Z,62.91
2018-11-10T00:27:39.287Z,63.2
2018-11-10T00:28:39.014Z,62.91
2018-11-10T00:29:39.255Z,63
2018-11-10T00:30:39.234Z,63
2018-11-10T00:31:39.219Z,63.67
2018-11-10T00:32:39.236Z,63.67
2018-11-10T00:33:39.197Z,63.76
2018-11-10T00:34:39.403Z,64.15
2018-11-10T00:35:38.890Z,64.43
2018-11-10T00:36:38.874Z,64.81
2018-11-10T00:37:39.124Z,64.72
2018-11-10T00:38:39.110Z,64.81
2018-11-10T00:39:39.101Z,65.86
2018-11-10T00:40:39.080Z,65.86
2018-11-10T00:41:39.054Z,66.05
2018-11-10T00:42:39.042Z,66.63
2018-11-10T00:43:39.026Z,67.58
2018-11-10T00:44:39.010Z,67.68
2018-11-10T00:45:38.726Z,68.24
2018-11-10T00:46:38.974Z,68.82
2018-11-10T00:47:38.958Z,68.44
2018-11-10T00:48:38.943Z,69.1
2018-11-10T00:49:38.661Z,69.58
2018-11-10T00:50:38.906Z,70.44
2018-11-10T00:51:38.894Z,70.47
2018-11-10T00:52:38.878Z,70.67
2018-11-10T00:53:38.900Z,70.95
2018-11-10T00:54:38.850Z,71.62
2018-11-10T00:55:38.561Z,71.81
2018-11-10T00:56:38.813Z,72.96
2018-11-10T00:57:38.788Z,72.96
2018-11-10T00:58:38.514Z,73.52
2018-11-10T00:59:38.495Z,74.48
2018-11-10T01:00:38.759Z,75.24
2018-11-10T01:01:38.471Z,75.24
2018-11-10T01:02:38.445Z,75.81
2018-11-10T01:03:38.688Z,75.62
2018-11-10T01:04:38.413Z,75.53
2018-11-10T01:05:38.757Z,76.1
2018-11-10T01:06:38.385Z,76.2
2018-11-10T01:07:38.636Z,76.48
2018-11-10T01:08:38.614Z,76.2
2018-11-10T01:09:38.605Z,76.39
2018-11-10T01:10:38.315Z,76.29
2018-11-10T01:11:38.566Z,76.96
2018-11-10T01:12:38.547Z,76.86
2018-11-10T01:13:38.577Z,78.01
2018-11-10T01:14:38.515Z,78.14
2018-11-10T01:15:38.506Z,79.38
2018-11-10T01:16:38.219Z,79.48
2018-11-10T01:17:38.200Z,79.1
2018-11-10T01:18:38.191Z,80.43
2018-11-10T01:19:38.173Z,80.62
2018-11-10T01:20:38.418Z,81.2
2018-11-10T01:21:38.404Z,81.2
2018-11-10T01:22:38.388Z,82.43
2018-11-10T01:23:38.105Z,82.34
2018-11-10T01:24:38.351Z,82.24
2018-11-10T01:25:38.071Z,82.06
2018-11-10T01:26:38.324Z,82.24
2018-11-10T01:27:38.052Z,82.34
2018-11-10T01:28:38.285Z,82.53
2018-11-10T01:29:38.271Z,82.91
2018-11-10T01:30:37.993Z,82.82
2018-11-10T01:31:38.241Z,83.39
2018-11-10T01:32:38.224Z,83.48
2018-11-10T01:33:37.941Z,83.29
2018-11-10T01:34:38.193Z,83.58
2018-11-10T01:35:38.181Z,83.39
2018-11-10T01:36:38.158Z,83.39
2018-11-10T01:37:38.164Z,83.11
2018-11-10T01:38:38.123Z,83.58
2018-11-10T01:39:38.116Z,83.58
2018-11-10T01:40:37.829Z,83.67
2018-11-10T01:41:38.093Z,83.77
2018-11-10T01:42:37.802Z,84.63
2018-11-10T01:43:38.046Z,84.82
2018-11-10T01:44:37.763Z,85.39
2018-11-10T01:45:37.754Z,84.82
2018-11-10T01:46:37.766Z,85.49
2018-11-10T01:47:37.725Z,85.77
2018-11-10T01:48:37.970Z,85.58
2018-11-10T01:49:37.949Z,85.58
2018-11-10T01:50:37.675Z,85.68
2018-11-10T01:51:37.917Z,87.21
2018-11-10T01:52:37.905Z,87.4
2018-11-10T01:53:37.886Z,86.44
2018-11-10T01:54:37.869Z,87.97
2018-11-10T01:55:37.850Z,88.26
2018-11-10T01:56:37.847Z,87.87
2018-11-10T01:57:37.826Z,88.35
2018-11-10T01:58:37.545Z,88.83
2018-11-10T01:59:37.534Z,89.02
2018-11-10T02:00:37.774Z,89.5
2018-11-10T02:01:37.760Z,89.59
2018-11-10T02:02:37.746Z,88.83
2018-11-10T02:03:37.485Z,89.02
2018-11-10T02:04:37.715Z,89.21
2018-11-10T02:05:37.697Z,88.92
2018-11-10T02:06:37.453Z,89.69
2018-11-10T02:07:37.397Z,89.12
2018-11-10T02:08:37.647Z,88.83
2018-11-10T02:09:37.637Z,89.21
2018-11-10T02:10:37.351Z,89.21
2018-11-10T02:11:37.609Z,89.31
2018-11-10T02:12:37.335Z,89.02
2018-11-10T02:13:37.568Z,88.64
2018-11-10T02:14:37.559Z,88.92
2018-11-10T02:15:37.565Z,89.59
2018-11-10T02:16:37.521Z,88.92
2018-11-10T02:17:37.505Z,89.21
2018-11-10T02:18:37.487Z,88.83
2018-11-10T02:19:37.476Z,89.4
2018-11-10T02:20:37.458Z,88.92
2018-11-10T02:21:37.440Z,88.54
2018-11-10T02:22:37.456Z,89.02
2018-11-10T02:23:37.144Z,89.21
2018-11-10T02:24:37.127Z,88.73
2018-11-10T02:25:37.378Z,88.73
2018-11-10T02:26:37.562Z,88.64
2018-11-10T02:27:37.344Z,88.64
2018-11-10T02:28:37.335Z,88.45
2018-11-10T02:29:37.313Z,89.59
2018-11-10T02:30:37.036Z,89.59
2018-11-10T02:31:37.287Z,89.02
2018-11-10T02:32:37.008Z,88.83
2018-11-10T02:33:37.251Z,89.02
2018-11-10T02:34:37.239Z,89.02
2018-11-10T02:35:37.222Z,88.83
2018-11-10T02:36:36.942Z,88.45
2018-11-10T02:37:36.924Z,88.73
2018-11-10T02:38:37.325Z,88.64
2018-11-10T02:39:37.160Z,89.02
2018-11-10T02:40:37.141Z,88.83
2018-11-10T02:41:37.126Z,89.02
2018-11-10T02:42:36.844Z,89.12
2018-11-10T02:43:36.829Z,89.12
2018-11-10T02:44:37.076Z,89.02
2018-11-10T02:45:37.071Z,89.4
2018-11-10T02:46:36.781Z,89.31
2018-11-10T02:47:36.769Z,89.12
2018-11-10T02:48:36.752Z,89.21
2018-11-10T02:49:36.730Z,88.92
2018-11-10T02:50:36.715Z,89.4
2018-11-10T02:51:36.968Z,89.02
2018-11-10T02:52:36.981Z,89.21
2018-11-10T02:53:36.666Z,89.5
2018-11-10T02:54:36.928Z,89.31
2018-11-10T02:55:36.901Z,89.69
2018-11-10T02:56:36.895Z,89.5
2018-11-10T02:57:36.610Z,89.69
2018-11-10T02:58:36.860Z,89.12
2018-11-10T02:59:36.841Z,90.26
2018-11-10T03:00:36.828Z,90.45
2018-11-10T03:01:36.813Z,90.45
2018-11-10T03:02:36.530Z,90.93
2018-11-10T03:03:36.780Z,91.98
2018-11-10T03:04:36.499Z,91.69
2018-11-10T03:05:36.746Z,92.46
2018-11-10T03:06:36.732Z,92.83
2018-11-10T03:07:36.451Z,93.07
2018-11-10T03:08:36.700Z,94.17
2018-11-10T03:09:36.681Z,94.89
2018-11-10T03:10:36.775Z,94.79
2018-11-10T03:11:36.653Z,95.27
2018-11-10T03:12:36.653Z,95.27
2018-11-10T03:13:36.358Z,95.08
2018-11-10T03:14:36.343Z,94.98
2018-11-10T03:15:36.600Z,94.51
2018-11-10T03:16:36.311Z,94.41
2018-11-10T03:17:36.294Z,94.79
2018-11-10T03:18:36.277Z,94.98
2018-11-10T03:19:36.528Z,94.89
2018-11-10T03:20:36.516Z,95.08
2018-11-10T03:21:36.239Z,95.56
2018-11-10T03:22:36.216Z,96.03
2018-11-10T03:23:36.466Z,95.08
2018-11-10T03:24:36.192Z,96.32
2018-11-10T03:25:36.436Z,96.13
2018-11-10T03:26:36.414Z,96.98
2018-11-10T03:27:36.144Z,97.08
2018-11-10T03:28:36.390Z,97.18
2018-11-10T03:29:36.378Z,96.7
2018-11-10T03:30:36.369Z,96.8
2018-11-10T03:31:36.345Z,96.89
2018-11-10T03:32:36.340Z,97.08
2018-11-10T03:33:36.315Z,96.32
2018-11-10T03:34:36.292Z,97.18
2018-11-10T03:35:36.290Z,96.98
2018-11-10T03:36:36.001Z,97.18
2018-11-10T03:37:36.249Z,97.18
2018-11-10T03:38:35.977Z,97.75
2018-11-10T03:39:35.951Z,97.08
2018-11-10T03:40:35.934Z,97.18
2018-11-10T03:41:35.924Z,97.56
2018-11-10T03:42:36.180Z,97.75
2018-11-10T03:43:36.155Z,97.56
2018-11-10T03:44:36.145Z,97.66
2018-11-10T03:45:36.124Z,97.75
2018-11-10T03:46:35.849Z,97.94
2018-11-10T03:47:36.092Z,98.03
2018-11-10T03:48:36.135Z,97.85
2018-11-10T03:49:35.801Z,97.56
2018-11-10T03:50:35.781Z,97.94
2018-11-10T03:51:35.771Z,98.13
2018-11-10T03:52:35.751Z,98.42
2018-11-10T03:53:35.737Z,98.03
2018-11-10T03:54:35.723Z,99.18
2018-11-10T03:55:35.708Z,99.57
2018-11-10T03:56:35.694Z,99.99
2018-11-10T03:57:35.937Z,99.99
2018-11-10T03:58:35.666Z,99.71
2018-11-10T03:59:35.645Z,99.99
2018-11-10T04:00:35.896Z,99.99
2018-11-10T04:01:35.611Z,99.99
2018-11-10T04:02:35.867Z,99.23
2018-11-10T04:03:35.849Z,99.8
2018-11-10T04:04:35.567Z,99.99
2018-11-10T04:05:35.558Z,99.99
2018-11-10T04:06:35.543Z,99.99
2018-11-10T04:07:35.524Z,99.99
2018-11-10T04:08:35.770Z,99.99
2018-11-10T04:09:35.761Z,99.99
2018-11-10T04:10:35.739Z,99.99
2018-11-10T04:11:35.728Z,99.99
2018-11-10T04:12:35.711Z,99.99
2018-11-10T04:13:35.730Z,99.99
2018-11-10T04:14:35.683Z,99.99
2018-11-10T04:15:35.685Z,99.99
2018-11-10T04:16:35.421Z,99.99
2018-11-10T04:17:35.377Z,99.99
2018-11-10T04:18:35.358Z,99.99
2018-11-10T04:19:35.371Z,99.99
2018-11-10T04:20:35.324Z,99.99
2018-11-10T04:21:35.616Z,99.99
2018-11-10T04:22:35.567Z,99.99
2018-11-10T04:23:35.543Z,99.99
2018-11-10T04:24:35.262Z,99.99
2018-11-10T04:25:35.521Z,99.99
2018-11-10T04:26:35.702Z,99.99
2018-11-10T04:27:35.483Z,99.99
2018-11-10T04:28:35.207Z,99.99
2018-11-10T04:29:35.477Z,99.99
2018-11-10T04:30:35.172Z,99.99
2018-11-10T04:31:35.421Z,99.99
2018-11-10T04:32:35.408Z,99.99
2018-11-10T04:33:35.392Z,99.99
2018-11-10T04:34:35.384Z,99.99
2018-11-10T04:35:35.361Z,99.99
2018-11-10T04:36:35.082Z,99.99
2018-11-10T04:37:35.069Z,99.99
2018-11-10T04:38:35.312Z,99.99
2018-11-10T04:39:35.299Z,99.99
2018-11-10T04:40:35.022Z,99.99
2018-11-10T04:41:35.270Z,99.99
2018-11-10T04:42:35.271Z,99.99
2018-11-10T04:43:35.251Z,99.99
2018-11-10T04:44:35.225Z,99.99
2018-11-10T04:45:34.948Z,99.99
2018-11-10T04:46:35.200Z,99.99
2018-11-10T04:47:35.235Z,99.99
2018-11-10T04:48:34.902Z,99.99
2018-11-10T04:49:34.950Z,99.99
2018-11-10T04:50:34.869Z,99.99
2018-11-10T04:51:35.130Z,99.99
2018-11-10T04:52:35.110Z,99.99
2018-11-10T04:53:35.135Z,99.99
2018-11-10T04:54:34.811Z,99.99
2018-11-10T04:55:34.801Z,99.99
2018-11-10T04:56:34.794Z,99.99
2018-11-10T04:57:35.035Z,99.99
2018-11-10T04:58:35.020Z,99.99
2018-11-10T04:59:34.746Z,99.99
2018-11-10T05:00:34.991Z,99.99
2018-11-10T05:01:34.798Z,99.99
2018-11-10T05:02:34.690Z,99.99
2018-11-10T05:03:34.674Z,99.99
2018-11-10T05:04:34.925Z,99.99
2018-11-10T05:05:34.910Z,99.99
2018-11-10T05:06:34.629Z,99.99
2018-11-10T05:07:34.613Z,99.99
2018-11-10T05:08:34.597Z,99.99
2018-11-10T05:09:34.854Z,99.99
2018-11-10T05:10:34.572Z,99.99
2018-11-10T05:11:34.818Z,99.99
2018-11-10T05:12:34.538Z,99.99
2018-11-10T05:13:34.806Z,99.99
2018-11-10T05:14:34.805Z,99.99
2018-11-10T05:15:34.777Z,99.99
2018-11-10T05:16:34.743Z,99.99
2018-11-10T05:17:34.728Z,99.99
2018-11-10T05:18:34.462Z,99.99
2018-11-10T05:19:34.702Z,99.99
2018-11-10T05:20:34.420Z,99.99
2018-11-10T05:21:34.408Z,99.99
2018-11-10T05:22:34.655Z,99.99
2018-11-10T05:23:34.374Z,99.99
2018-11-10T05:24:34.626Z,99.99
2018-11-10T05:25:34.613Z,99.99
2018-11-10T05:26:34.332Z,99.99
2018-11-10T05:27:34.320Z,99.99
2018-11-10T05:28:34.503Z,99.99
2018-11-10T05:29:34.287Z,99.99
2018-11-10T05:30:34.535Z,99.99
2018-11-10T05:31:34.521Z,99.99
2018-11-10T05:32:34.713Z,99.99
2018-11-10T05:33:34.229Z,99.99
2018-11-10T05:34:34.499Z,99.99
2018-11-10T05:35:34.466Z,99.99
2018-11-10T05:36:34.185Z,99.99
2018-11-10T05:37:34.436Z,99.99
2018-11-10T05:38:34.421Z,99.99
2018-11-10T05:39:34.416Z,99.99
2018-11-10T05:40:34.402Z,99.99
2018-11-10T05:41:34.108Z,99.99
2018-11-10T05:42:34.367Z,99.99
2018-11-10T05:43:34.344Z,99.99
2018-11-10T05:44:34.330Z,99.99
2018-11-10T05:45:34.054Z,99.99
2018-11-10T05:46:34.302Z,99.99
2018-11-10T05:47:34.292Z,99.99
2018-11-10T05:48:34.007Z,99.99
2018-11-10T05:49:33.990Z,99.99
2018-11-10T05:50:34.242Z,99.99
2018-11-10T05:51:34.226Z,99.99
2018-11-10T05:52:34.209Z,99.99
2018-11-10T05:53:34.194Z,99.99
2018-11-10T05:54:33.916Z,99.99
2018-11-10T05:55:33.925Z,99.99
2018-11-10T05:56:34.175Z,99.99
2018-11-10T05:57:34.243Z,99.99
2018-11-10T05:58:34.125Z,99.99
2018-11-10T05:59:33.844Z,99.99
2018-11-10T06:00:34.116Z,99.99
2018-11-10T06:01:33.818Z,99.99
2018-11-10T06:02:33.798Z,99.99
2018-11-10T06:03:34.142Z,99.99
2018-11-10T06:04:34.330Z,99.99
2018-11-10T06:05:33.749Z,99.99
2018-11-10T06:06:34.007Z,99.99
2018-11-10T06:07:33.722Z,99.99
2018-11-10T06:08:33.711Z,99.99
2018-11-10T06:09:34.119Z,99.99
2018-11-10T06:10:33.679Z,99.99
2018-11-10T06:11:33.708Z,99.99
2018-11-10T06:12:33.988Z,99.99
2018-11-10T06:13:33.993Z,99.99
2018-11-10T06:14:33.938Z,99.99
2018-11-10T06:15:33.874Z,99.99
2018-11-10T06:16:33.591Z,99.99
2018-11-10T06:17:33.845Z,99.99
2018-11-10T06:18:33.612Z,99.99
2018-11-10T06:19:33.545Z,99.99
2018-11-10T06:20:33.533Z,99.99
2018-11-10T06:21:33.517Z,99.99
2018-11-10T06:22:33.768Z,99.99
2018-11-10T06:23:33.751Z,99.99
2018-11-10T06:24:33.476Z,99.99
2018-11-10T06:25:33.458Z,99.99
2018-11-10T06:26:33.908Z,99.99
2018-11-10T06:27:33.427Z,99.99
2018-11-10T06:28:33.749Z,99.99
2018-11-10T06:29:33.682Z,99.99
2018-11-10T06:30:33.654Z,99.99
2018-11-10T06:31:33.641Z,99.99
2018-11-10T06:32:33.775Z,99.99
2018-11-10T06:33:33.343Z,99.99
2018-11-10T06:34:33.599Z,99.99
2018-11-10T06:35:33.584Z,99.99
2018-11-10T06:36:33.564Z,99.99
2018-11-10T06:37:33.283Z,99.99
2018-11-10T06:38:33.533Z,99.99
2018-11-10T06:39:33.255Z,99.99
2018-11-10T06:40:33.237Z,99.99
2018-11-10T06:41:33.811Z,99.99
2018-11-10T06:42:33.483Z,99.99
2018-11-10T06:43:33.458Z,99.99
2018-11-10T06:44:33.445Z,99.99
2018-11-10T06:45:33.433Z,99.99
2018-11-10T06:46:33.152Z,99.99
2018-11-10T06:47:33.402Z,99.99
2018-11-10T06:48:33.389Z,99.99
2018-11-10T06:49:33.375Z,99.99
2018-11-10T06:50:33.355Z,99.99
2018-11-10T06:51:33.078Z,98.28
2018-11-10T06:52:33.361Z,97.23
2018-11-10T06:53:33.055Z,97.23
2018-11-10T06:54:33.298Z,98.09
2018-11-10T06:55:33.280Z,96.47
2018-11-10T06:56:33.001Z,94.07
2018-11-10T06:57:33.248Z,93.21
2018-11-10T06:58:32.982Z,94.22
2018-11-10T06:59:33.224Z,94.41
2018-11-10T07:00:32.956Z,95.65
2018-11-10T07:01:32.928Z,93.26
2018-11-10T07:02:33.178Z,93.4
2018-11-10T07:03:32.969Z,93.26
2018-11-10T07:04:33.148Z,89.06
2018-11-10T07:05:33.135Z,89.15
2018-11-10T07:06:33.115Z,89.53
2018-11-10T07:07:33.143Z,89.63
2018-11-10T07:08:33.084Z,88.96
2018-11-10T07:09:32.902Z,87.05
2018-11-10T07:10:32.786Z,87.05
2018-11-10T07:11:32.774Z,86.67
2018-11-10T07:12:33.027Z,85.42
2018-11-10T07:13:33.010Z,85.33
2018-11-10T07:14:32.991Z,85.62
2018-11-10T07:15:32.975Z,85.9
2018-11-10T07:16:32.959Z,82.18
2018-11-10T07:17:33.077Z,83.61
2018-11-10T07:18:32.928Z,82.28
2018-11-10T07:19:32.918Z,81.7
2018-11-10T07:20:32.927Z,79.22
2018-11-10T07:21:32.623Z,79.98
2018-11-10T07:22:32.605Z,79.88
2018-11-10T07:23:32.855Z,80.17
2018-11-10T07:24:32.844Z,83.04
2018-11-10T07:25:32.556Z,83.99
2018-11-10T07:26:32.805Z,82.84
2018-11-10T07:27:32.790Z,81.7
2018-11-10T07:28:32.783Z,81.22
2018-11-10T07:29:32.497Z,83.13
2018-11-10T07:30:32.766Z,85.24
2018-11-10T07:31:32.729Z,86
2018-11-10T07:32:32.730Z,87.43
2018-11-10T07:33:32.441Z,87.43
2018-11-10T07:34:32.682Z,86.57
2018-11-10T07:35:32.666Z,84.95
2018-11-10T07:36:32.663Z,87.34
2018-11-10T07:37:32.760Z,86.67
2018-11-10T07:38:32.627Z,85.24
2018-11-10T07:39:32.607Z,87.53
2018-11-10T07:40:32.591Z,85.81
2018-11-10T07:41:32.306Z,88.01
2018-11-10T07:42:32.289Z,88.58
2018-11-10T07:43:32.278Z,84.66
2018-11-10T07:44:32.528Z,83.51
2018-11-10T07:45:32.554Z,82.46
2018-11-10T07:46:32.228Z,80.65
2018-11-10T07:47:32.214Z,77.87
2018-11-10T07:48:32.476Z,77.01
2018-11-10T07:49:32.744Z,77.59
2018-11-10T07:50:32.163Z,76.45
2018-11-10T07:51:32.148Z,78.07
2018-11-10T07:52:32.395Z,74.73
2018-11-10T07:53:32.115Z,78.45
2018-11-10T07:54:32.111Z,77.3
2018-11-10T07:55:32.287Z,79.69
2018-11-10T07:56:32.357Z,78.45
2018-11-10T07:57:32.054Z,78.45
2018-11-10T07:58:32.304Z,76.45
2018-11-10T07:59:32.034Z,75.39
2018-11-10T08:00:32.078Z,75.68
2018-11-10T08:01:32.006Z,76.25
2018-11-10T08:02:31.981Z,76.06
2018-11-10T08:03:32.234Z,81.03
2018-11-10T08:04:32.314Z,82.94
2018-11-10T08:05:32.201Z,81.41
2018-11-10T08:06:31.911Z,82.65
2018-11-10T08:07:32.175Z,82.56
2018-11-10T08:08:32.161Z,81.41
2018-11-10T08:09:32.130Z,83.33
2018-11-10T08:10:32.125Z,86.1
2018-11-10T08:11:31.839Z,83.9
2018-11-10T08:12:32.086Z,84.61
2018-11-10T08:13:32.064Z,86.9
2018-11-10T08:14:32.053Z,87.86
2018-11-10T08:15:32.061Z,88.72
2018-11-10T08:16:31.756Z,88.72
2018-11-10T08:17:32.011Z,90.73
2018-11-10T08:18:31.766Z,89.01
2018-11-10T08:19:31.977Z,89.39
2018-11-10T08:20:31.703Z,89.39
2018-11-10T08:21:31.943Z,92.74
2018-11-10T08:22:31.667Z,91.39
2018-11-10T08:23:31.657Z,92.64
2018-11-10T08:24:31.893Z,93.12
2018-11-10T08:25:31.623Z,92.45
2018-11-10T08:26:31.600Z,93.02
2018-11-10T08:27:32.058Z,92.45
2018-11-10T08:28:31.841Z,95.89
2018-11-10T08:29:31.820Z,94.84
2018-11-10T08:30:31.800Z,95.22
2018-11-10T08:31:31.787Z,94.74
2018-11-10T08:32:31.772Z,97.33
2018-11-10T08:33:31.801Z,96.75
2018-11-10T08:34:31.808Z,97.33
2018-11-10T08:35:31.583Z,99.04
2018-11-10T08:36:31.483Z,99.14
2018-11-10T08:37:31.501Z,99.99
2018-11-10T08:38:31.825Z,99.99
2018-11-10T08:39:31.857Z,99.99
2018-11-10T08:40:31.639Z,99.99
2018-11-10T08:41:31.398Z,99.99
2018-11-10T08:42:31.646Z,99.99
2018-11-10T08:43:31.624Z,99.99
2018-11-10T08:44:31.610Z,99.99
2018-11-10T08:45:31.583Z,99.99
2018-11-10T08:46:31.562Z,99.99
2018-11-10T08:47:31.545Z,99.99
2018-11-10T08:48:31.462Z,99.99
2018-11-10T08:49:31.510Z,99.99
2018-11-10T08:50:31.512Z,99.99
2018-11-10T08:51:31.514Z,99.99
2018-11-10T08:52:31.210Z,99.99
2018-11-10T08:53:31.450Z,99.99
2018-11-10T08:54:31.172Z,99.99
2018-11-10T08:55:31.153Z,99.99
2018-11-10T08:56:31.190Z,99.99
2018-11-10T08:57:31.197Z,99.99
2018-11-10T08:58:31.162Z,99.99
2018-11-10T08:59:31.405Z,99.99
2018-11-10T09:00:31.184Z,99.99
2018-11-10T09:01:31.340Z,99.99
2018-11-10T09:02:31.090Z,99.99
2018-11-10T09:03:31.080Z,99.99
2018-11-10T09:04:31.389Z,99.99
2018-11-10T09:05:31.305Z,99.99
2018-11-10T09:06:31.297Z,99.99
2018-11-10T09:07:31.256Z,99.99
2018-11-10T09:08:30.963Z,99.99
2018-11-10T09:09:31.209Z,99.99
2018-11-10T09:10:31.201Z,99.99
2018-11-10T09:11:31.176Z,99.99
2018-11-10T09:12:30.907Z,99.99
2018-11-10T09:13:31.146Z,99.99
2018-11-10T09:14:31.147Z,99.99
2018-11-10T09:15:31.129Z,99.99
2018-11-10T09:16:31.110Z,99.99
2018-11-10T09:17:31.118Z,99.99
2018-11-10T09:18:30.808Z,99.99
2018-11-10T09:19:31.056Z,99.99
2018-11-10T09:20:30.773Z,99.99
2018-11-10T09:21:31.422Z,99.99
2018-11-10T09:22:31.012Z,99.99
2018-11-10T09:23:30.998Z,99.99
2018-11-10T09:24:31.186Z,99.99
2018-11-10T09:25:30.993Z,99.99
2018-11-10T09:26:30.953Z,99.99
2018-11-10T09:27:30.670Z,99.99
2018-11-10T09:28:30.661Z,99.99
2018-11-10T09:29:30.904Z,99.99
2018-11-10T09:30:30.627Z,99.99
2018-11-10T09:31:30.896Z,99.99
2018-11-10T09:32:30.897Z,99.99
2018-11-10T09:33:30.792Z,99.99
2018-11-10T09:34:30.583Z,99.99
2018-11-10T09:35:30.865Z,99.99
2018-11-10T09:36:30.955Z,99.99
2018-11-10T09:37:30.781Z,99.99
2018-11-10T09:38:30.775Z,99.99
2018-11-10T09:39:30.763Z,99.99
2018-11-10T09:40:30.742Z,99.99
2018-11-10T09:41:30.462Z,99.99
2018-11-10T09:42:30.644Z,99.99
2018-11-10T09:43:30.439Z,99.99
2018-11-10T09:44:30.415Z,99.99
2018-11-10T09:45:30.409Z,99.99
2018-11-10T09:46:30.659Z,99.99
2018-11-10T09:47:30.640Z,99.99
2018-11-10T09:48:30.621Z,99.99
2018-11-10T09:49:30.626Z,99.99
2018-11-10T09:50:30.324Z,99.99
2018-11-10T09:51:30.363Z,99.99
2018-11-10T09:52:30.380Z,99.99
2018-11-10T09:53:30.283Z,99.99
2018-11-10T09:54:30.546Z,99.99
2018-11-10T09:55:30.255Z,99.99
2018-11-10T09:56:30.502Z,99.99
2018-11-10T09:57:30.488Z,99.99
2018-11-10T09:58:30.211Z,99.99
2018-11-10T09:59:30.194Z,99.99
2018-11-10T10:00:30.449Z,99.99
2018-11-10T10:01:30.840Z,99.99
2018-11-10T10:02:31.562Z,99.99
2018-11-10T10:03:30.404Z,99.99
2018-11-10T10:04:30.386Z,99.99
2018-11-10T10:05:30.370Z,99.99
2018-11-10T10:06:30.090Z,99.99
2018-11-10T10:07:30.344Z,99.99
2018-11-10T10:08:30.323Z,99.99
2018-11-10T10:09:30.334Z,99.99
2018-11-10T10:10:30.032Z,99.99
2018-11-10T10:11:30.059Z,99.99
2018-11-10T10:12:30.006Z,99.99
2018-11-10T10:13:29.992Z,99.99
2018-11-10T10:14:29.977Z,99.99
2018-11-10T10:15:29.963Z,99.99
2018-11-10T10:16:30.800Z,99.99
2018-11-10T10:17:30.203Z,99.99
2018-11-10T10:18:30.180Z,99.99
2018-11-10T10:19:30.161Z,99.99
2018-11-10T10:20:30.152Z,99.99
2018-11-10T10:21:30.131Z,99.99
2018-11-10T10:22:29.860Z,99.99
2018-11-10T10:23:30.106Z,99.99
2018-11-10T10:24:29.822Z,99.99
2018-11-10T10:25:30.077Z,99.99
2018-11-10T10:26:30.066Z,99.99
2018-11-10T10:27:30.253Z,99.99
2018-11-10T10:28:30.284Z,99.99
2018-11-10T10:29:29.756Z,99.99
2018-11-10T10:30:30.058Z,99.99
2018-11-10T10:31:29.728Z,99.99
2018-11-10T10:32:29.714Z,99.99
2018-11-10T10:33:29.973Z,99.99
2018-11-10T10:34:30.416Z,99.99
2018-11-10T10:35:30.065Z,99.99
2018-11-10T10:36:29.920Z,99.99
2018-11-10T10:37:29.903Z,99.99
2018-11-10T10:38:29.896Z,99.99
2018-11-10T10:39:29.612Z,99.99
2018-11-10T10:40:29.856Z,99.99
2018-11-10T10:41:29.848Z,99.99
2018-11-10T10:42:29.828Z,99.99
2018-11-10T10:43:29.550Z,99.86
2018-11-10T10:44:29.539Z,99.99
2018-11-10T10:45:29.524Z,99.67
2018-11-10T10:46:29.782Z,99.99
2018-11-10T10:47:29.493Z,99.67
2018-11-10T10:48:29.835Z,99.99
2018-11-10T10:49:29.741Z,99.99
2018-11-10T10:50:29.726Z,99.99
2018-11-10T10:51:29.697Z,99.99
2018-11-10T10:52:29.724Z,99.99
2018-11-10T10:53:29.674Z,99.99
2018-11-10T10:54:29.399Z,99.99
2018-11-10T10:55:29.648Z,99.86
2018-11-10T10:56:29.992Z,99.99
2018-11-10T10:57:29.621Z,99.99
2018-11-10T10:58:29.605Z,99.99
2018-11-10T10:59:29.325Z,99.99
2018-11-10T11:00:29.595Z,99.52
2018-11-10T11:01:29.556Z,99.99
2018-11-10T11:02:29.283Z,99.99
2018-11-10T11:03:29.352Z,99.99
2018-11-10T11:04:29.265Z,99.99
2018-11-10T11:05:29.244Z,99.99
2018-11-10T11:06:29.226Z,99.72
2018-11-10T11:07:29.474Z,99.72
2018-11-10T11:08:29.470Z,99.24
2018-11-10T11:09:29.726Z,98.95
2018-11-10T11:10:29.437Z,99.72
2018-11-10T11:11:29.157Z,99.81
2018-11-10T11:12:29.403Z,99.99
2018-11-10T11:13:29.397Z,99.99
2018-11-10T11:14:29.422Z,99.99
2018-11-10T11:15:30.473Z,99.99
2018-11-10T11:16:29.351Z,99.91
2018-11-10T11:17:29.077Z,99.99
2018-11-10T11:18:29.365Z,99.52
2018-11-10T11:19:29.306Z,99.15
2018-11-10T11:20:29.290Z,99.33
2018-11-10T11:21:29.015Z,98.47
2018-11-10T11:22:29.263Z,98.52
2018-11-10T11:23:28.989Z,98.57
2018-11-10T11:24:28.972Z,98.38
2018-11-10T11:25:29.227Z,99.72
2018-11-10T11:26:29.216Z,98.95
2018-11-10T11:27:28.929Z,98.38
2018-11-10T11:28:29.177Z,98.47
2018-11-10T11:29:29.559Z,98.28
2018-11-10T11:30:28.888Z,99.05
2018-11-10T11:31:29.139Z,99.33
2018-11-10T11:32:29.127Z,98.66
2018-11-10T11:33:29.109Z,98.76
2018-11-10T11:34:28.831Z,98.52
2018-11-10T11:35:29.320Z,97.85
2018-11-10T11:36:29.081Z,98.24
2018-11-10T11:37:29.057Z,98.57
2018-11-10T11:38:29.035Z,98.09
2018-11-10T11:39:28.763Z,97.18
2018-11-10T11:40:28.746Z,97.56
2018-11-10T11:41:28.871Z,97.37
2018-11-10T11:42:28.984Z,97.13
2018-11-10T11:43:28.708Z,96.37
2018-11-10T11:44:28.959Z,95.65
2018-11-10T11:45:28.936Z,94.7
2018-11-10T11:46:28.931Z,95.46
2018-11-10T11:47:28.941Z,94.7
2018-11-10T11:48:28.889Z,94.41
2018-11-10T11:49:28.883Z,94.31
2018-11-10T11:50:28.871Z,94.41
2018-11-10T11:51:28.590Z,94.6
2018-11-10T11:52:28.574Z,94.12
2018-11-10T11:53:28.832Z,93.55
2018-11-10T11:54:28.829Z,94.41
2018-11-10T11:55:28.793Z,93.74
2018-11-10T11:56:28.836Z,94.98
2018-11-10T11:57:28.515Z,95.17
2018-11-10T11:58:29.130Z,94.5
2018-11-10T11:59:28.743Z,95.41
2018-11-10T12:00:28.477Z,96.75
2018-11-10T12:01:28.711Z,95.89
2018-11-10T12:02:28.693Z,96.75
2018-11-10T12:03:28.737Z,97.42
2018-11-10T12:04:28.475Z,95.98
2018-11-10T12:05:28.390Z,98.28
2018-11-10T12:06:28.643Z,98.57
2018-11-10T12:07:28.630Z,99.72
2018-11-10T12:08:28.356Z,99.62
2018-11-10T12:09:28.343Z,99.99
2018-11-10T12:10:28.589Z,98.95
2018-11-10T12:11:28.586Z,99.15
2018-11-10T12:12:28.297Z,98.43
2018-11-10T12:13:28.556Z,99.72
2018-11-10T12:14:28.537Z,99.62
2018-11-10T12:15:28.769Z,99.99
2018-11-10T12:16:30.218Z,99.81
2018-11-10T12:17:28.238Z,99.33
2018-11-10T12:18:28.483Z,99.33
2018-11-10T12:19:28.203Z,99.62
2018-11-10T12:20:28.195Z,98.76
2018-11-10T12:21:28.440Z,98.57
2018-11-10T12:22:28.166Z,98.38
2018-11-10T12:23:28.149Z,99.24
2018-11-10T12:24:28.403Z,98.76
2018-11-10T12:25:28.123Z,98.57
2018-11-10T12:26:28.115Z,99.52
2018-11-10T12:27:28.560Z,98.66
2018-11-10T12:28:28.080Z,98.09
2018-11-10T12:29:28.069Z,98.47
2018-11-10T12:30:28.054Z,97.13
2018-11-10T12:31:28.093Z,98.28
2018-11-10T12:32:28.349Z,98.57
2018-11-10T12:33:28.273Z,97.33
2018-11-10T12:34:28.272Z,97.52
2018-11-10T12:35:27.983Z,98.57
2018-11-10T12:36:28.240Z,98.19
2018-11-10T12:37:28.269Z,98.19
2018-11-10T12:38:27.943Z,97.9
2018-11-10T12:39:27.930Z,97.8
2018-11-10T12:40:28.186Z,97.42
2018-11-10T12:41:28.169Z,95.98
2018-11-10T12:42:28.155Z,96.66
2018-11-10T12:43:27.885Z,96.66
2018-11-10T12:44:28.123Z,96.47
2018-11-10T12:45:28.107Z,97.23
2018-11-10T12:46:27.897Z,96.37
2018-11-10T12:47:27.840Z,96.08
2018-11-10T12:48:28.079Z,95.03
2018-11-10T12:49:28.059Z,95.61
2018-11-10T12:50:28.045Z,95.22
2018-11-10T12:51:27.765Z,94.74
2018-11-10T12:52:28.029Z,94.36
2018-11-10T12:53:28.010Z,95.22
2018-11-10T12:54:27.727Z,93.59